Leesburg, FL

9:35 AM EDT on September 22, 2014 (GMT -0400)
Lake Saunders RV Resort | Change Station
CLOSE
Current Station
Personal Weather Station
Location: Mt Dora, FL
Elevation: 121 ft
Nearby Weather Stations

Elev 121 ft 28.81 °N, 81.69 °W | Updated 4 seconds ago

Scattered Clouds
Scattered Clouds
78.1 °F
Feels Like 81 °F
N
0.0
Wind Variable Wind from SE
Gusts 0.0 mph

Today
High -- | Low -- °F
--% Chance of Precip.
Yesterday
High -- | Low -- °F
Precip. -- in
7:15 AM 7:23 PM
Waning Crescent, 3% visible
Pressure 30.05 in
Visibility 10.0 miles
Clouds Few 700 ft
Scattered Clouds 9000 ft
Heat Index 81 °F
Dew Point 75 °F
Humidity 89%
Rainfall 0.00 in
Snow Depth Not available.
UV 2 out of 12
Pollen 2.70 out of 12
Air Quality Not available.
Flu Activity Not available.
SPECI KLEE 221302Z 00000KT 10SM FEW007 SCT090 26/23 A3005 RMK AO2 T02560233

More Conditions Fewer Conditions

Pressure 30.05 in
Visibility 10.0 miles
Clouds Few 700 ft
Scattered Clouds 9000 ft
Heat Index 81 °F
Dew Point 75 °F
Humidity 89%
Rainfall 0.00 in
Snow Depth Not available.
UV 2 out of 12
Pollen 2.70 out of 12
Air Quality Not available.
Flu Activity Not available.
SPECI KLEE 221302Z 00000KT 10SM FEW007 SCT090 26/23 A3005 RMK AO2 T02560233

More Conditions Fewer Conditions

10-Day Weather Forecast

Almanac

Astronomy

Sep. 22, 2014 Rise Set
Actual Time 7:15 AM EDT 7:23 PM EDT
Civil Twilight 6:52 AM EDT 7:47 PM EDT
Nautical Twilight 6:24 AM EDT 8:14 PM EDT
Astronomical Twilight 5:56 AM EDT 8:42 PM EDT
Moon 5:48 AM EDT 6:27 PM EDT
Length of Visible Light 12h 55m
Length of Day
12h 08m
Tomorrow will be 1m 43s shorter.
Waning Crescent, 3% of the Moon is Illuminated
Today
Waning Crescent
Sep 24
New
Oct 1
First Quarter
Oct 8
Full
Oct 15
Last Quarter

Today's Extremes

State Highs State Lows

Community

WunderPhotos

Upload Photos

1,755,429 photos uploaded!

WunderBlogs® & News

Nearby

Snow Depth

Station Depth Elevation
No new snow has been reported.

Earthquake Activity

City Distance Mag. Time & Date
No recent earthquake activity has been reported nearby.
Minimum magnitude displayed is 2.5.

Coastal Water Temperatures

Place Temperature
No Stations Reporting

Nearby Weather Stations